Time;durP1;ratioP1;P1;durP2;ratioP2;P2;SDS_P1;SDS_P2;PMS_P1;PMS_P2;Temp;Humidity;BMP_temperature;BMP_pressure;BME280_temperature;BME280_humidity;BME280_pressure;Samples;Min_cycle;Max_cycle;Signal;HPM_P1;HPM_P2
2023/04/27 00:00:59;;;;;;;6.97;4.13;;;;;;;5.54;95.70;97328.06;5021536;28;20091;-61
2023/04/27 00:03:27;;;;;;;6.63;4.25;;;;;;;5.63;95.84;97335.84;5020399;28;20043;-61
2023/04/27 00:05:53;;;;;;;7.45;4.00;;;;;;;5.71;95.12;97325.63;5023223;28;20041;-61
2023/04/27 00:08:20;;;;;;;8.27;4.18;;;;;;;5.70;94.97;97328.53;5023513;28;20128;-60
2023/04/27 00:10:47;;;;;;;8.85;4.43;;;;;;;5.72;94.52;97318.38;5012451;28;20046;-61
2023/04/27 00:13:13;;;;;;;6.07;3.83;;;;;;;5.82;94.75;97318.69;5011302;28;20095;-61
2023/04/27 00:15:40;;;;;;;6.47;3.53;;;;;;;5.98;91.50;97311.09;5016883;28;20037;-60
2023/04/27 00:18:07;;;;;;;7.15;3.85;;;;;;;5.99;92.00;97310.03;5019360;28;20562;-60
2023/04/27 00:20:33;;;;;;;10.55;4.13;;;;;;;6.06;93.26;97308.16;5016880;28;20425;-60
2023/04/27 00:23:00;;;;;;;6.53;3.38;;;;;;;5.81;94.52;97309.00;5017031;28;20433;-61
2023/04/27 00:25:26;;;;;;;5.32;3.47;;;;;;;5.56;98.38;97320.59;5013031;28;20100;-61
2023/04/27 00:27:53;;;;;;;9.48;4.10;;;;;;;5.48;99.65;97310.13;5018266;28;20077;-60
2023/04/27 00:30:19;;;;;;;9.90;4.03;;;;;;;5.44;99.57;97311.59;5009129;28;20050;-61
2023/04/27 00:32:46;;;;;;;8.35;4.07;;;;;;;5.44;98.67;97306.25;5018416;28;20041;-60
2023/04/27 00:35:15;;;;;;;5.72;3.38;;;;;;;5.35;99.64;97303.03;5011768;28;20545;-60
2023/04/27 00:37:41;;;;;;;7.55;3.90;;;;;;;5.27;100.00;97303.31;5013863;28;20087;-59
2023/04/27 00:40:08;;;;;;;8.43;3.97;;;;;;;5.29;100.00;97306.56;5019922;28;20547;-60
2023/04/27 00:42:35;;;;;;;8.60;4.20;;;;;;;5.30;100.00;97303.69;5017688;28;20719;-59
2023/04/27 00:45:02;;;;;;;8.57;4.18;;;;;;;5.44;98.98;97307.06;5018417;28;20094;-61
2023/04/27 00:47:29;;;;;;;6.63;3.78;;;;;;;5.56;98.82;97301.78;5016627;28;20041;-61
2023/04/27 00:49:56;;;;;;;7.90;3.78;;;;;;;5.50;99.46;97293.78;5014643;28;20056;-61
2023/04/27 00:52:24;;;;;;;8.60;3.83;;;;;;;5.41;100.00;97293.25;5015433;28;20091;-61
2023/04/27 00:54:52;;;;;;;9.35;3.85;;;;;;;5.30;100.00;97287.56;5014043;28;20081;-61
2023/04/27 00:57:19;;;;;;;7.70;4.13;;;;;;;5.31;100.00;97296.47;5022177;28;20112;-61
2023/04/27 00:59:46;;;;;;;8.63;4.20;;;;;;;5.19;100.00;97296.31;5018687;28;20042;-61
2023/04/27 01:02:12;;;;;;;6.78;4.30;;;;;;;4.97;100.00;97295.91;5023377;28;20084;-61
2023/04/27 01:04:40;;;;;;;7.88;4.28;;;;;;;4.95;100.00;97299.59;5012804;28;20042;-61
2023/04/27 01:07:06;;;;;;;6.80;4.22;;;;;;;4.97;100.00;97301.25;5015127;28;20417;-61
2023/04/27 01:09:33;;;;;;;7.50;3.67;;;;;;;5.10;100.00;97298.47;5018076;28;20071;-61
2023/04/27 01:12:00;;;;;;;7.00;3.85;;;;;;;5.18;100.00;97302.75;5014839;28;20060;-61
2023/04/27 01:14:26;;;;;;;6.72;3.58;;;;;;;5.03;100.00;97311.09;5013110;28;20055;-61
2023/04/27 01:16:53;;;;;;;6.72;3.38;;;;;;;4.93;100.00;97303.53;5021722;28;20045;-61
2023/04/27 01:19:19;;;;;;;6.90;3.85;;;;;;;4.89;100.00;97302.31;5024317;28;20037;-61
2023/04/27 01:21:46;;;;;;;7.43;3.78;;;;;;;4.89;100.00;97311.22;5020755;28;20045;-61
2023/04/27 01:24:12;;;;;;;8.27;4.32;;;;;;;4.89;100.00;97313.06;5009186;28;20120;-59
2023/04/27 01:26:39;;;;;;;6.43;4.22;;;;;;;4.70;100.00;97310.28;5017431;28;20041;-61
2023/04/27 01:29:05;;;;;;;10.27;4.78;;;;;;;4.52;100.00;97309.16;5007913;28;20048;-61
2023/04/27 01:31:32;;;;;;;8.05;4.32;;;;;;;4.51;100.00;97310.19;5014247;28;20042;-59
2023/04/27 01:33:59;;;;;;;8.95;5.03;;;;;;;4.62;100.00;97308.69;5017233;28;20065;-60
2023/04/27 01:36:26;;;;;;;9.38;4.65;;;;;;;4.75;100.00;97301.63;5014834;28;20048;-60
2023/04/27 01:38:54;;;;;;;6.55;4.63;;;;;;;4.68;100.00;97298.94;5013235;28;20048;-60
2023/04/27 01:41:21;;;;;;;10.00;4.40;;;;;;;4.59;100.00;97300.25;5017657;28;20136;-60
2023/04/27 01:43:47;;;;;;;7.13;4.85;;;;;;;4.52;100.00;97298.44;5011448;28;20504;-59
2023/04/27 01:46:14;;;;;;;8.98;4.97;;;;;;;4.59;100.00;97297.56;5023885;28;20040;-60
2023/04/27 01:48:41;;;;;;;8.77;4.10;;;;;;;4.50;100.00;97305.06;5008635;28;20091;-60
2023/04/27 01:51:09;;;;;;;9.07;4.60;;;;;;;4.44;100.00;97306.72;5013670;28;20099;-60
2023/04/27 01:53:36;;;;;;;5.78;3.85;;;;;;;4.31;100.00;97309.47;5042790;28;20719;-61
2023/04/27 01:56:03;;;;;;;9.93;4.53;;;;;;;4.29;100.00;97301.63;5013683;28;20141;-60
2023/04/27 01:58:31;;;;;;;7.45;3.92;;;;;;;4.33;100.00;97305.53;5008178;28;20041;-61
2023/04/27 02:00:58;;;;;;;6.32;3.92;;;;;;;4.41;100.00;97304.47;5022690;28;20456;-59
2023/04/27 02:03:24;;;;;;;6.18;4.28;;;;;;;4.50;100.00;97307.72;5021879;28;20065;-59
2023/04/27 02:05:51;;;;;;;7.25;4.20;;;;;;;4.45;100.00;97313.72;5019565;28;20548;-60
2023/04/27 02:08:18;;;;;;;6.53;4.28;;;;;;;4.48;100.00;97309.78;5015724;28;20045;-60
2023/04/27 02:10:44;;;;;;;6.50;3.80;;;;;;;4.48;100.00;97312.47;5013611;28;20702;-61
2023/04/27 02:13:11;;;;;;;10.15;4.22;;;;;;;4.52;100.00;97309.16;5019676;28;20057;-60
2023/04/27 02:15:37;;;;;;;6.18;4.22;;;;;;;4.54;100.00;97315.13;5015732;28;20040;-60
2023/04/27 02:18:04;;;;;;;6.82;4.07;;;;;;;4.43;100.00;97315.81;5013740;28;20500;-60
2023/04/27 02:20:31;;;;;;;8.02;3.70;;;;;;;4.34;100.00;97312.53;5014540;28;20041;-60
2023/04/27 02:23:01;;;;;;;8.10;4.15;;;;;;;4.37;100.00;97322.00;5022339;28;20563;-60
2023/04/27 02:25:27;;;;;;;8.43;4.30;;;;;;;4.34;100.00;97315.22;5022039;28;20099;-60
2023/04/27 02:27:54;;;;;;;7.55;3.80;;;;;;;4.43;100.00;97313.13;5019046;28;20048;-59
2023/04/27 02:30:21;;;;;;;9.98;3.55;;;;;;;4.55;100.00;97316.78;5021891;28;20420;-60
2023/04/27 02:32:48;;;;;;;5.80;3.50;;;;;;;4.62;100.00;97321.28;5016673;28;20055;-60
2023/04/27 02:35:15;;;;;;;6.13;3.92;;;;;;;4.59;100.00;97321.69;5019782;28;20890;-60
2023/04/27 02:37:42;;;;;;;10.25;3.78;;;;;;;4.55;100.00;97329.34;5019258;28;20143;-59
2023/04/27 02:40:09;;;;;;;7.43;4.25;;;;;;;4.62;100.00;97326.63;5014247;28;20037;-60
2023/04/27 02:42:37;;;;;;;7.93;4.22;;;;;;;4.74;100.00;97324.91;5018107;28;20069;-61
2023/04/27 02:45:06;;;;;;;7.85;4.18;;;;;;;4.90;100.00;97331.63;5020797;28;20480;-61
2023/04/27 02:47:32;;;;;;;7.13;4.60;;;;;;;5.08;100.00;97333.56;5022632;28;20041;-61
2023/04/27 02:50:00;;;;;;;8.13;4.47;;;;;;;5.21;99.74;97331.84;5022029;28;20146;-61
2023/04/27 02:52:26;;;;;;;6.60;4.35;;;;;;;5.25;99.90;97333.03;5023666;28;20468;-60
2023/04/27 02:54:53;;;;;;;7.05;4.03;;;;;;;5.27;99.23;97324.78;5020729;28;20042;-60
2023/04/27 02:57:19;;;;;;;7.95;4.28;;;;;;;5.29;99.21;97331.56;5018146;28;20041;-60
2023/04/27 02:59:46;;;;;;;7.82;3.95;;;;;;;5.34;98.76;97331.72;5022464;28;20092;-60
2023/04/27 03:02:12;;;;;;;11.07;4.45;;;;;;;5.40;98.51;97329.19;5022447;28;20065;-60
2023/04/27 03:04:39;;;;;;;9.00;4.38;;;;;;;5.42;98.75;97324.44;5017847;28;20508;-58
2023/04/27 03:07:05;;;;;;;9.23;4.32;;;;;;;5.33;100.00;97319.34;5019777;28;20730;-60
2023/04/27 03:09:32;;;;;;;8.27;4.18;;;;;;;5.32;100.00;97316.88;5027431;28;20042;-60
2023/04/27 03:11:58;;;;;;;8.18;4.32;;;;;;;5.39;99.98;97317.66;5024577;28;20575;-60
2023/04/27 03:14:25;;;;;;;6.70;3.50;;;;;;;5.42;99.37;97321.75;5025776;28;20212;-59
2023/04/27 03:16:53;;;;;;;8.40;4.25;;;;;;;5.42;99.02;97327.13;5023594;28;20530;-59
2023/04/27 03:19:19;;;;;;;9.13;4.60;;;;;;;5.16;100.00;97324.44;5018467;28;20688;-60
2023/04/27 03:21:46;;;;;;;9.05;4.72;;;;;;;5.21;100.00;97321.91;5026603;28;20642;-59
2023/04/27 03:24:13;;;;;;;8.50;4.40;;;;;;;5.41;98.74;97325.47;5024869;28;20121;-60
2023/04/27 03:26:41;;;;;;;9.32;4.28;;;;;;;5.24;99.32;97319.84;5022304;28;20041;-60
2023/04/27 03:29:08;;;;;;;7.45;4.38;;;;;;;5.16;100.00;97323.63;5016882;28;20556;-60
2023/04/27 03:31:35;;;;;;;7.75;4.25;;;;;;;5.14;100.00;97320.31;5019463;28;20131;-60
2023/04/27 03:34:01;;;;;;;7.80;4.68;;;;;;;5.20;100.00;97322.16;5021055;28;20108;-60
2023/04/27 03:36:28;;;;;;;10.23;4.32;;;;;;;5.29;100.00;97320.84;5025887;28;20053;-59
2023/04/27 03:38:54;;;;;;;6.65;4.50;;;;;;;5.34;100.00;97325.53;5019501;28;20037;-60
2023/04/27 03:41:21;;;;;;;8.30;4.22;;;;;;;5.37;100.00;97329.63;5016861;28;20045;-60
2023/04/27 03:43:49;;;;;;;11.68;4.60;;;;;;;5.32;99.49;97336.50;5023462;28;20116;-60
2023/04/27 03:46:16;;;;;;;9.13;4.00;;;;;;;5.36;98.39;97328.81;5023477;28;20041;-60
2023/04/27 03:48:43;;;;;;;9.32;3.88;;;;;;;5.34;98.59;97334.41;5022064;28;20516;-61
2023/04/27 03:51:09;;;;;;;5.43;3.53;;;;;;;5.16;100.00;97331.69;5023399;28;20037;-61
2023/04/27 03:53:36;;;;;;;8.68;4.13;;;;;;;5.20;100.00;97336.38;5025984;28;20052;-60
2023/04/27 03:56:03;;;;;;;10.85;4.88;;;;;;;5.10;100.00;97329.84;5022494;28;20049;-61
2023/04/27 03:58:30;;;;;;;7.22;4.10;;;;;;;5.10;100.00;97332.53;5020828;28;20050;-61
2023/04/27 04:01:09;;;;;;;7.25;3.75;;;;;;;5.07;100.00;97328.44;5025511;28;20033;-61
2023/04/27 04:03:36;;;;;;;7.40;4.03;;;;;;;5.05;100.00;97330.53;5023159;28;20144;-61
2023/04/27 04:06:06;;;;;;;8.27;4.38;;;;;;;4.94;100.00;97321.31;5015580;28;20072;-61
2023/04/27 04:08:33;;;;;;;9.77;3.80;;;;;;;4.94;100.00;97326.66;5028824;28;20045;-61
2023/04/27 04:11:00;;;;;;;10.32;4.38;;;;;;;4.81;100.00;97330.25;5021508;28;20045;-61
2023/04/27 04:13:27;;;;;;;10.38;3.88;;;;;;;4.81;100.00;97331.06;5027925;28;20073;-61
2023/04/27 04:16:05;;;;;;;6.82;4.13;;;;;;;4.86;100.00;97334.97;5024252;28;20044;-60
2023/04/27 04:18:33;;;;;;;6.57;3.92;;;;;;;4.92;100.00;97339.47;5021090;28;20578;-61
2023/04/27 04:21:00;;;;;;;6.05;4.07;;;;;;;4.79;100.00;97341.19;5032311;28;20037;-60
2023/04/27 04:23:27;;;;;;;6.95;4.00;;;;;;;4.77;100.00;97348.63;5022643;28;20675;-61
2023/04/27 04:25:57;;;;;;;5.32;3.65;;;;;;;4.82;100.00;97343.44;5017635;28;20128;-60
2023/04/27 04:28:28;;;;;;;8.80;3.97;;;;;;;4.92;100.00;97353.72;5020599;28;20096;-60
2023/04/27 04:30:54;;;;;;;7.78;3.90;;;;;;;4.93;100.00;97352.66;5009704;28;20724;-61
2023/04/27 04:33:21;;;;;;;7.97;4.15;;;;;;;4.91;100.00;97349.38;5014396;28;20045;-61
2023/04/27 04:35:48;;;;;;;8.80;3.85;;;;;;;4.87;100.00;97350.84;5016962;28;20042;-61
2023/04/27 04:38:14;;;;;;;6.35;3.53;;;;;;;5.00;100.00;97351.78;5020683;28;20083;-61
2023/04/27 04:40:41;;;;;;;7.97;4.07;;;;;;;5.01;100.00;97343.53;5014061;28;20087;-60
2023/04/27 04:43:12;;;;;;;9.82;3.85;;;;;;;4.97;100.00;97349.56;5019131;28;20041;-60
2023/04/27 04:45:38;;;;;;;7.35;3.85;;;;;;;5.03;100.00;97351.38;5020448;28;20046;-60
2023/04/27 04:48:05;;;;;;;8.85;3.67;;;;;;;5.07;100.00;97349.91;5020787;28;20037;-59
2023/04/27 04:50:33;;;;;;;5.57;3.85;;;;;;;5.05;100.00;97343.94;5021238;28;20057;-60
2023/04/27 04:53:00;;;;;;;6.90;3.72;;;;;;;5.01;100.00;97346.22;5021846;28;20041;-60
2023/04/27 04:55:27;;;;;;;6.03;3.53;;;;;;;5.06;100.00;97346.38;5014955;28;20068;-60
2023/04/27 04:57:54;;;;;;;10.13;3.90;;;;;;;5.16;100.00;97350.47;5020701;28;20041;-60
2023/04/27 05:00:21;;;;;;;7.35;4.15;;;;;;;5.16;100.00;97339.72;5018036;28;20038;-61
2023/04/27 05:02:47;;;;;;;6.05;3.65;;;;;;;5.28;100.00;97348.72;5021131;28;20579;-58
2023/04/27 05:05:14;;;;;;;6.90;3.72;;;;;;;5.39;100.00;97349.03;5020063;28;20048;-59
2023/04/27 05:07:41;;;;;;;7.22;3.97;;;;;;;5.45;100.00;97350.84;5012332;28;20045;-59
2023/04/27 05:10:08;;;;;;;10.55;4.60;;;;;;;5.43;100.00;97347.56;5018251;28;20038;-60
2023/04/27 05:12:35;;;;;;;6.80;4.13;;;;;;;5.50;100.00;97350.19;5017021;28;20138;-60
2023/04/27 05:15:01;;;;;;;6.93;4.30;;;;;;;5.58;100.00;97345.38;5010656;28;20104;-60
2023/04/27 05:17:28;;;;;;;5.38;3.50;;;;;;;5.62;99.30;97347.59;5014331;28;20041;-60
2023/04/27 05:19:55;;;;;;;7.97;4.25;;;;;;;5.70;98.65;97353.53;5019111;28;20144;-60
2023/04/27 05:22:21;;;;;;;9.35;4.03;;;;;;;5.81;98.09;97343.09;5022192;28;20041;-60
2023/04/27 05:24:48;;;;;;;6.90;3.80;;;;;;;5.98;97.82;97343.34;5019659;28;20037;-60
2023/04/27 05:27:14;;;;;;;8.23;3.63;;;;;;;6.10;96.89;97348.81;5019494;28;20046;-60
2023/04/27 05:29:41;;;;;;;6.55;3.70;;;;;;;6.14;97.88;97351.88;5018415;28;20150;-60
2023/04/27 05:32:08;;;;;;;9.32;4.13;;;;;;;6.17;97.66;97354.97;5027788;28;20061;-61
2023/04/27 05:34:35;;;;;;;8.95;4.38;;;;;;;6.22;96.31;97356.97;5017294;28;20052;-60
2023/04/27 05:37:02;;;;;;;8.20;4.28;;;;;;;6.31;95.57;97358.34;5014343;28;20718;-59
2023/04/27 05:39:28;;;;;;;8.05;4.07;;;;;;;6.37;95.66;97368.19;5014932;28;20042;-60
2023/04/27 05:41:55;;;;;;;8.65;4.65;;;;;;;6.44;95.29;97359.19;5017511;28;20037;-61
2023/04/27 05:44:24;;;;;;;8.55;4.15;;;;;;;6.55;94.67;97366.50;5021183;28;20048;-61
2023/04/27 05:46:50;;;;;;;7.22;4.53;;;;;;;6.62;96.05;97372.66;5019718;28;20626;-60
2023/04/27 05:49:17;;;;;;;16.40;4.65;;;;;;;6.61;94.54;97371.00;5021110;28;20476;-59
2023/04/27 05:51:43;;;;;;;11.25;5.30;;;;;;;6.78;93.90;97364.97;5015839;28;20038;-60
2023/04/27 05:54:10;;;;;;;8.93;5.45;;;;;;;6.86;91.93;97367.34;5017445;28;20218;-59
2023/04/27 05:56:36;;;;;;;11.05;4.97;;;;;;;7.06;90.58;97363.56;5020624;28;20045;-59
2023/04/27 05:59:03;;;;;;;9.25;5.22;;;;;;;7.18;89.41;97368.19;5019278;28;20092;-60
2023/04/27 06:01:30;;;;;;;11.57;5.53;;;;;;;7.29;88.22;97370.91;5017828;28;20052;-60
2023/04/27 06:04:00;;;;;;;9.45;5.40;;;;;;;7.49;88.29;97371.63;5012658;28;20037;-59
2023/04/27 06:06:30;;;;;;;13.07;5.30;;;;;;;7.45;87.81;97382.06;5014556;28;20060;-61
2023/04/27 06:08:57;;;;;;;10.43;5.18;;;;;;;7.46;89.19;97378.31;5013137;28;20041;-60
2023/04/27 06:11:24;;;;;;;9.40;5.43;;;;;;;7.41;87.67;97384.38;5017505;28;20508;-60
2023/04/27 06:13:50;;;;;;;7.63;4.50;;;;;;;7.55;87.15;97384.16;5020687;28;20080;-59
2023/04/27 06:16:17;;;;;;;9.93;5.43;;;;;;;7.70;86.21;97383.72;5019442;28;20132;-61
2023/04/27 06:18:43;;;;;;;8.40;4.60;;;;;;;7.94;84.81;97387.28;5014914;28;20080;-59
2023/04/27 06:21:10;;;;;;;8.60;5.13;;;;;;;8.12;83.15;97387.38;5012285;28;20040;-60
2023/04/27 06:23:36;;;;;;;9.38;4.70;;;;;;;8.19;82.54;97388.06;5023008;28;20065;-59
2023/04/27 06:26:03;;;;;;;9.95;4.80;;;;;;;8.34;81.62;97387.59;5022414;28;20393;-58
2023/04/27 06:28:29;;;;;;;9.90;4.55;;;;;;;8.48;81.54;97390.03;5016017;28;20038;-59
2023/04/27 06:30:56;;;;;;;13.73;4.97;;;;;;;8.49;81.39;97391.66;5012866;28;20046;-59
2023/04/27 06:33:22;;;;;;;8.07;4.60;;;;;;;8.61;79.46;97389.78;5021218;28;20034;-59
2023/04/27 06:35:49;;;;;;;8.95;4.05;;;;;;;8.81;77.76;97393.97;5021797;28;20033;-60
2023/04/27 06:38:16;;;;;;;7.50;3.80;;;;;;;8.80;77.99;97395.81;5020379;28;20040;-59
2023/04/27 06:40:43;;;;;;;9.43;4.28;;;;;;;8.88;76.05;97399.22;5022311;28;20038;-60
2023/04/27 06:43:10;;;;;;;8.77;4.25;;;;;;;8.91;75.09;97396.84;5019294;28;20049;-59
2023/04/27 06:45:36;;;;;;;8.85;4.05;;;;;;;8.83;76.57;97400.75;5019565;28;20037;-60
2023/04/27 06:48:03;;;;;;;6.88;3.92;;;;;;;8.91;77.13;97399.53;5012515;28;20681;-60
2023/04/27 06:50:29;;;;;;;5.45;3.67;;;;;;;9.00;77.20;97404.56;5021183;28;20047;-60
2023/04/27 06:52:56;;;;;;;7.03;3.70;;;;;;;9.03;74.94;97404.09;5016620;28;20042;-60
2023/04/27 06:55:22;;;;;;;8.15;4.03;;;;;;;9.06;75.14;97400.88;5023833;28;20090;-59
2023/04/27 06:57:49;;;;;;;8.40;4.07;;;;;;;9.05;74.85;97407.34;5016137;28;20116;-57
2023/04/27 07:00:16;;;;;;;10.48;3.97;;;;;;;8.97;74.60;97404.00;5014526;28;20042;-59
2023/04/27 07:02:42;;;;;;;11.68;3.95;;;;;;;8.85;73.05;97403.22;5015176;28;20046;-53
2023/04/27 07:05:09;;;;;;;7.88;3.15;;;;;;;8.78;72.34;97405.22;5016623;28;20052;-56
2023/04/27 07:07:36;;;;;;;7.25;3.47;;;;;;;8.87;72.03;97405.66;5012425;28;20045;-58
2023/04/27 07:10:03;;;;;;;7.82;3.08;;;;;;;8.90;70.96;97403.31;5013099;28;20080;-54
2023/04/27 07:12:29;;;;;;;8.00;3.67;;;;;;;8.99;71.43;97406.44;5015612;28;20582;-58
2023/04/27 07:14:56;;;;;;;7.45;3.17;;;;;;;9.12;70.56;97405.34;5011889;28;20049;-56
2023/04/27 07:17:22;;;;;;;7.20;3.40;;;;;;;9.22;68.08;97407.41;5011007;28;20053;-57
2023/04/27 07:19:49;;;;;;;5.90;3.45;;;;;;;9.37;67.08;97401.47;5014743;28;20045;-53
2023/04/27 07:22:15;;;;;;;6.00;2.78;;;;;;;9.50;65.67;97414.66;5020402;28;20044;-53
2023/04/27 07:24:42;;;;;;;6.07;2.95;;;;;;;9.59;65.44;97412.38;5012894;28;20069;-57
2023/04/27 07:27:09;;;;;;;8.02;2.90;;;;;;;9.73;63.74;97406.66;5016391;28;20072;-57
2023/04/27 07:29:36;;;;;;;6.80;3.10;;;;;;;9.94;65.27;97402.38;5015139;28;20045;-58
2023/04/27 07:32:06;;;;;;;6.28;2.50;;;;;;;10.20;66.08;97391.09;5016031;28;20065;-56
2023/04/27 07:34:33;;;;;;;6.30;2.55;;;;;;;10.28;61.96;97398.78;5011306;28;20476;-56
2023/04/27 07:37:18;;;;;;;5.97;2.47;;;;;;;10.45;62.14;97395.25;5012319;28;20045;-55
2023/04/27 07:39:45;;;;;;;7.10;2.75;;;;;;;10.57;60.63;97395.16;5015841;28;20697;-55
2023/04/27 07:42:12;;;;;;;5.13;2.40;;;;;;;10.75;59.88;97394.00;5013808;28;20049;-50
2023/04/27 07:44:39;;;;;;;7.38;3.05;;;;;;;10.63;59.87;97399.56;5006095;28;20100;-53
2023/04/27 07:47:06;;;;;;;4.90;2.72;;;;;;;10.61;59.80;97393.59;5016111;28;20456;-53
2023/04/27 07:49:33;;;;;;;6.22;3.20;;;;;;;10.70;58.34;97392.09;5020032;28;20401;-54
2023/04/27 07:52:00;;;;;;;5.97;2.88;;;;;;;10.63;58.93;97388.72;5021695;28;20072;-55
2023/04/27 07:54:27;;;;;;;12.05;6.63;;;;;;;10.56;58.24;97390.81;5017977;28;20832;-53
2023/04/27 07:56:53;;;;;;;5.32;2.97;;;;;;;10.76;59.64;97393.75;5019775;28;20423;-56
2023/04/27 07:59:20;;;;;;;8.68;2.83;;;;;;;10.76;58.30;97385.66;5030263;28;20041;-54
2023/04/27 08:01:46;;;;;;;5.05;2.95;;;;;;;10.80;57.12;97386.78;5025158;28;20124;-56
2023/04/27 08:04:14;;;;;;;5.20;2.40;;;;;;;10.95;57.31;97379.91;5027959;28;20048;-55
2023/04/27 08:06:41;;;;;;;7.47;2.50;;;;;;;10.98;57.74;97392.94;5022490;28;20049;-58
2023/04/27 08:09:08;;;;;;;5.82;2.47;;;;;;;11.05;57.35;97390.03;5024708;28;20052;-58
2023/04/27 08:11:35;;;;;;;8.05;2.20;;;;;;;11.31;59.59;97376.72;5020925;28;20045;-59
2023/04/27 08:14:02;;;;;;;8.05;2.65;;;;;;;11.69;57.17;97388.44;5018244;28;20705;-55
2023/04/27 08:16:28;;;;;;;6.53;2.67;;;;;;;12.01;54.24;97383.28;5027093;28;20049;-55
2023/04/27 08:18:55;;;;;;;5.90;2.88;;;;;;;12.12;53.69;97384.19;5019407;28;20466;-57
2023/04/27 08:21:23;;;;;;;4.43;2.10;;;;;;;12.14;52.83;97380.13;5020227;28;20598;-58
2023/04/27 08:23:50;;;;;;;6.05;2.17;;;;;;;11.96;52.85;97384.88;5022213;28;20061;-58
2023/04/27 08:26:17;;;;;;;5.40;2.40;;;;;;;12.06;52.89;97377.91;5022390;28;20055;-58
2023/04/27 08:28:43;;;;;;;9.68;2.72;;;;;;;11.90;52.25;97379.66;5014643;28;20037;-59
2023/04/27 08:31:10;;;;;;;6.70;3.22;;;;;;;11.74;51.02;97374.13;5019292;28;20041;-57
2023/04/27 08:33:36;;;;;;;8.05;2.42;;;;;;;11.72;51.37;97373.53;5020796;28;20049;-59
2023/04/27 08:36:03;;;;;;;4.93;2.30;;;;;;;11.97;52.41;97366.69;5017400;28;20045;-55
2023/04/27 08:38:29;;;;;;;4.85;2.30;;;;;;;12.12;50.63;97371.41;5019118;28;20099;-57
2023/04/27 08:40:56;;;;;;;4.88;2.20;;;;;;;12.14;49.51;97366.56;5020726;28;20684;-57
2023/04/27 08:43:34;;;;;;;4.78;2.08;;;;;;;12.26;48.92;97369.06;5017495;28;20046;-58
2023/04/27 08:46:02;;;;;;;4.13;2.20;;;;;;;12.38;49.25;97359.91;5020054;28;20053;-57
2023/04/27 08:48:29;;;;;;;5.25;2.28;;;;;;;12.43;47.97;97368.06;5020556;28;20044;-56
2023/04/27 08:50:58;;;;;;;6.03;2.80;;;;;;;12.23;48.07;97362.25;5018822;28;20044;-59
2023/04/27 08:53:25;;;;;;;5.15;2.08;;;;;;;12.47;51.84;97370.00;5020861;28;20525;-57
2023/04/27 08:55:54;;;;;;;5.22;2.50;;;;;;;12.71;48.81;97357.84;5017847;28;20100;-57
2023/04/27 08:58:20;;;;;;;6.22;2.75;;;;;;;12.88;49.75;97361.19;5017936;28;20120;-53
2023/04/27 09:00:48;;;;;;;4.88;2.15;;;;;;;13.03;47.82;97372.34;5019175;28;20033;-57
2023/04/27 09:03:24;;;;;;;4.78;2.70;;;;;;;12.93;47.59;97365.81;5018710;28;20080;-56
2023/04/27 09:05:51;;;;;;;6.82;2.70;;;;;;;12.62;47.76;97368.41;5022014;28;20065;-54
2023/04/27 09:08:50;;;;;;;6.30;2.60;;;;;;;12.80;50.92;97371.75;5023340;28;20045;-56
2023/04/27 09:11:34;;;;;;;7.47;2.60;;;;;;;12.81;48.08;97371.47;5016012;28;20052;-57
2023/04/27 09:14:13;;;;;;;6.38;2.80;;;;;;;12.82;47.42;97370.38;5019646;28;20545;-55
2023/04/27 09:16:41;;;;;;;6.70;2.38;;;;;;;12.76;48.81;97374.19;5017147;28;20046;-56
2023/04/27 09:19:08;;;;;;;6.35;2.40;;;;;;;13.03;47.71;97380.50;5021261;28;20037;-64
2023/04/27 09:21:34;;;;;;;7.18;3.05;;;;;;;13.20;46.97;97381.06;5020394;28;20104;-61
2023/04/27 09:24:12;;;;;;;7.63;2.28;;;;;;;13.25;45.34;97372.13;5017844;28;20287;-61
2023/04/27 09:26:40;;;;;;;5.55;2.25;;;;;;;13.20;45.87;97372.91;5017699;28;20056;-61
2023/04/27 09:29:07;;;;;;;10.38;2.70;;;;;;;13.51;47.24;97374.91;5019091;28;20068;-61
2023/04/27 09:31:34;;;;;;;3.72;2.08;;;;;;;13.61;45.02;97374.94;5020809;28;20096;-61
2023/04/27 09:34:02;;;;;;;5.22;2.75;;;;;;;13.71;46.15;97382.25;5021914;28;20045;-61
2023/04/27 09:36:31;;;;;;;8.57;3.35;;;;;;;13.31;50.10;97373.78;5020333;28;20436;-60
2023/04/27 09:39:03;;;;;;;7.75;3.58;;;;;;;13.42;51.16;97384.66;5014208;28;20053;-61
2023/04/27 09:41:31;;;;;;;;;;;;;;;13.45;50.62;97384.13;5018467;28;20124;-62
2023/04/27 09:43:58;;;;;;;6.00;3.10;;;;;;;13.57;50.40;97367.56;5023591;28;20328;-61
2023/04/27 09:46:26;;;;;;;6.63;3.83;;;;;;;13.50;50.25;97371.34;5019599;28;20580;-62
2023/04/27 09:48:54;;;;;;;6.22;3.60;;;;;;;13.69;51.11;97368.13;5019569;28;20072;-61
2023/04/27 09:51:21;;;;;;;6.43;3.92;;;;;;;13.80;48.38;97377.09;5021131;28;20061;-61
2023/04/27 09:53:51;;;;;;;8.95;4.43;;;;;;;13.77;49.53;97373.00;5016026;28;20038;-61
2023/04/27 09:56:41;;;;;;;7.55;3.90;;;;;;;13.85;50.15;97365.38;5021189;28;20041;-61
2023/04/27 09:59:36;;;;;;;6.35;3.15;;;;;;;13.72;49.12;97364.84;5018409;28;20091;-61
2023/04/27 10:02:04;;;;;;;7.20;3.85;;;;;;;13.69;49.41;97373.56;5019635;28;20411;-61
2023/04/27 10:05:20;;;;;;;7.72;3.58;;;;;;;13.89;49.70;97375.44;5015093;28;20063;-62
2023/04/27 10:07:48;;;;;;;10.18;3.60;;;;;;;13.69;50.24;97370.84;5013388;28;20757;-61
2023/04/27 10:10:17;;;;;;;6.45;3.20;;;;;;;14.00;49.57;97359.91;5018064;28;20504;-63
2023/04/27 10:12:55;;;;;;;8.25;3.90;;;;;;;13.93;49.26;97372.19;5016164;28;20144;-61
2023/04/27 10:15:26;;;;;;;8.32;3.60;;;;;;;14.18;49.14;97377.59;5017426;28;20054;-61
2023/04/27 10:17:54;;;;;;;7.13;4.10;;;;;;;14.18;48.35;97377.59;5010838;28;20052;-61
2023/04/27 10:20:31;;;;;;;9.48;3.55;;;;;;;14.24;48.77;97366.69;5011185;28;20073;-61
2023/04/27 10:22:59;;;;;;;7.18;4.10;;;;;;;14.33;48.49;97370.47;5010302;28;20070;-63
2023/04/27 10:25:36;;;;;;;7.90;4.00;;;;;;;14.39;47.08;97382.16;5014850;28;20037;-62
2023/04/27 10:28:03;;;;;;;7.00;3.67;;;;;;;14.07;46.37;97384.13;5012688;28;20133;-61
2023/04/27 10:30:37;;;;;;;9.05;3.97;;;;;;;13.50;48.40;97371.34;5008922;28;20069;-62
2023/04/27 10:33:10;;;;;;;9.77;4.00;;;;;;;13.43;50.02;97370.78;5022491;28;20037;-62
2023/04/27 10:35:43;;;;;;;6.22;3.65;;;;;;;13.27;50.24;97367.25;5018306;28;20115;-61
2023/04/27 10:38:16;;;;;;;10.02;4.10;;;;;;;13.42;51.78;97360.19;5019319;28;20105;-61
2023/04/27 10:40:44;;;;;;;7.25;3.92;;;;;;;13.49;50.09;97360.78;5019471;28;20049;-61
2023/04/27 10:43:16;;;;;;;8.18;4.10;;;;;;;13.64;49.42;97359.97;5016426;28;20042;-62
2023/04/27 10:45:44;;;;;;;10.77;3.72;;;;;;;13.93;50.15;97359.38;5017811;28;20543;-61
2023/04/27 10:48:16;;;;;;;11.18;4.53;;;;;;;14.35;48.38;97357.41;5009351;28;20592;-61
2023/04/27 10:50:45;;;;;;;7.93;3.75;;;;;;;14.57;47.00;97357.03;5021701;28;20116;-62
2023/04/27 10:53:16;;;;;;;7.63;3.70;;;;;;;14.64;46.27;97354.03;5018412;28;20041;-62
2023/04/27 10:55:42;;;;;;;6.97;3.05;;;;;;;14.95;46.55;97353.91;5025726;28;20049;-62
2023/04/27 10:58:09;;;;;;;6.88;4.25;;;;;;;15.03;47.09;97351.66;5024724;28;20052;-62
2023/04/27 11:00:40;;;;;;;7.38;3.85;;;;;;;15.10;46.63;97354.09;5020943;28;20052;-62
2023/04/27 11:03:19;;;;;;;6.32;3.50;;;;;;;15.34;46.44;97346.81;5026058;28;20037;-62
2023/04/27 11:05:48;;;;;;;6.10;3.88;;;;;;;15.53;45.88;97354.34;5017263;28;20053;-61
2023/04/27 11:08:16;;;;;;;7.97;3.97;;;;;;;15.65;44.98;97353.97;5010481;28;20887;-62
2023/04/27 11:10:48;;;;;;;7.10;4.03;;;;;;;15.47;44.26;97350.00;5015360;28;20060;-61
2023/04/27 11:13:18;;;;;;;6.20;3.50;;;;;;;15.59;44.72;97353.19;5019264;28;20159;-62
2023/04/27 11:15:46;;;;;;;7.45;3.65;;;;;;;15.56;45.37;97348.28;5017577;28;20575;-63
2023/04/27 11:18:14;;;;;;;7.70;3.70;;;;;;;15.25;45.19;97345.00;5014716;28;20054;-63
2023/04/27 11:20:43;;;;;;;6.68;3.55;;;;;;;15.19;44.98;97336.84;5011038;28;20853;-61
2023/04/27 11:23:10;;;;;;;6.90;3.65;;;;;;;15.06;46.68;97327.41;5016973;28;20033;-61
2023/04/27 11:25:37;;;;;;;7.50;3.45;;;;;;;15.17;45.50;97336.31;5019279;28;20046;-62
2023/04/27 11:28:04;;;;;;;8.98;3.97;;;;;;;15.54;46.16;97330.59;5019454;28;20449;-62
2023/04/27 11:30:31;;;;;;;8.52;4.10;;;;;;;15.74;45.42;97335.88;5019384;28;20045;-61
2023/04/27 11:33:06;;;;;;;6.80;3.90;;;;;;;15.73;44.72;97341.63;5021663;28;20043;-61
2023/04/27 11:35:33;;;;;;;6.32;3.70;;;;;;;15.65;45.00;97343.06;5023799;28;20050;-62
2023/04/27 11:38:00;;;;;;;7.47;3.75;;;;;;;15.63;44.78;97339.81;5017060;28;20132;-62
2023/04/27 11:40:28;;;;;;;7.38;3.70;;;;;;;15.60;45.27;97337.66;5016098;28;20124;-62